PWSweather.com
Personal Weather Stations
Station Observations
BNUMANCIA
BarcelonaES 08029

BarcelonaES 08029

Lat: 41.3855863, Lon: 2.1367624

Elevation: 46

Station Type: WMR180

High Low Average
Temperature 71.4°F21.9°F 61.9°F16.6°F 65.3°F18.5°F
Dew Point 59.6°F15.3°F 53.9°F12.2°F 56.7°F13.7°F
Winds 4.0 mph NW6.4 mph NW Calm Calm 1.0 mph 1.6 mph
Wind Gusts 5.6 mph9.0 mph -- 2.0 mph3.2 mph
Humidity 88% 57% 74%
Pressure 30.00 in1015.90 in 29.91 in1012.90 in -
Precipitation 0.00 in0.00 in - -
Hour Temp Dew Point Humidity Winds Wind Gusts Pressure Precip Precip Rate Daily Precip Total
12:00 AM 63.1°F17.3°C 56.2°F13.4°C 78% Calm Calm 1.3 mph2.1 kmh 29.97 in1014.9 mb 0.00 in0.0 mm 0.00 in0.0 mm 0.00 in0.0 mm
12:05 AM 63.1°F17.3°C 56.5°F13.6°C 79% Calm Calm 1.6 mph2.6 kmh 29.97 in1014.9 mb 0.00 in0.0 mm 0.00 in0.0 mm 0.00 in0.0 mm
12:09 AM 63.1°F17.3°C 56.5°F13.6°C 79% Calm Calm -- 29.97 in1014.9 mb 0.00 in0.0 mm 0.00 in0.0 mm 0.00 in0.0 mm
12:14 AM 63.1°F17.3°C 56.5°F13.6°C 79% 2.5 mph WNW4.0 kmh WNW 2.5 mph4.0 kmh 30.00 in1015.9 mb 0.00 in0.0 mm 0.00 in0.0 mm 0.00 in0.0 mm
12:19 AM 63.0°F17.2°C 56.7°F13.7°C 80% 2.5 mph W4.0 kmh W 3.1 mph5.0 kmh 30.00 in1015.9 mb 0.00 in0.0 mm 0.00 in0.0 mm 0.00 in0.0 mm
12:24 AM 63.0°F17.2°C 56.7°F13.7°C 80% Calm Calm 2.7 mph4.3 kmh 30.00 in1015.9 mb 0.00 in0.0 mm 0.00 in0.0 mm 0.00 in0.0 mm
12:29 AM 63.0°F17.2°C 56.7°F13.7°C 80% 2.5 mph NW4.0 kmh NW 2.5 mph4.0 kmh 30.00 in1015.9 mb 0.00 in0.0 mm 0.00 in0.0 mm 0.00 in0.0 mm
12:34 AM 63.0°F17.2°C 56.7°F13.7°C 80% 1.6 mph NW2.6 kmh NW 1.6 mph2.6 kmh 30.00 in1015.9 mb 0.00 in0.0 mm 0.00 in0.0 mm 0.00 in0.0 mm
12:39 AM 63.0°F17.2°C 56.7°F13.7°C 80% Calm Calm 1.6 mph2.6 kmh 30.00 in1015.9 mb 0.00 in0.0 mm 0.00 in0.0 mm 0.00 in0.0 mm
12:44 AM 63.0°F17.2°C 56.7°F13.7°C 80% Calm Calm 2.0 mph3.2 kmh 30.00 in1015.9 mb 0.00 in0.0 mm 0.00 in0.0 mm 0.00 in0.0 mm
12:49 AM 63.0°F17.2°C 56.7°F13.7°C 80% Calm Calm -- 30.00 in1015.9 mb 0.00 in0.0 mm 0.00 in0.0 mm 0.00 in0.0 mm
12:55 AM 63.0°F17.2°C 56.7°F13.7°C 80% 2.0 mph NW3.2 kmh NW 2.0 mph3.2 kmh 30.00 in1015.9 mb 0.00 in0.0 mm 0.00 in0.0 mm 0.00 in0.0 mm
01:00 AM 62.8°F17.1°C 56.9°F13.8°C 81% 1.6 mph WNW2.6 kmh WNW 2.5 mph4.0 kmh 30.00 in1015.9 mb 0.00 in0.0 mm 0.00 in0.0 mm 0.00 in0.0 mm
01:05 AM 62.8°F17.1°C 56.9°F13.8°C 81% Calm Calm 1.6 mph2.6 kmh 30.00 in1015.9 mb 0.00 in0.0 mm 0.00 in0.0 mm 0.00 in0.0 mm
01:09 AM 62.8°F17.1°C 56.9°F13.8°C 81% 2.2 mph W3.5 kmh W 2.2 mph3.5 kmh 30.00 in1015.9 mb 0.00 in0.0 mm 0.00 in0.0 mm 0.00 in0.0 mm
01:14 AM 62.8°F17.1°C 56.9°F13.8°C 81% 0.9 mph W1.4 kmh W 2.2 mph3.5 kmh 30.00 in1015.9 mb 0.00 in0.0 mm 0.00 in0.0 mm 0.00 in0.0 mm
01:19 AM 62.8°F17.1°C 57.2°F14.0°C 82% 2.2 mph W3.5 kmh W 2.5 mph4.0 kmh 30.00 in1015.9 mb 0.00 in0.0 mm 0.00 in0.0 mm 0.00 in0.0 mm
01:24 AM 62.6°F17.0°C 57.0°F13.9°C 82% Calm Calm 2.7 mph4.3 kmh 30.00 in1015.9 mb 0.00 in0.0 mm 0.00 in0.0 mm 0.00 in0.0 mm
01:29 AM 62.6°F17.0°C 57.0°F13.9°C 82% 2.2 mph W3.5 kmh W 2.2 mph3.5 kmh 30.00 in1015.9 mb 0.00 in0.0 mm 0.00 in0.0 mm 0.00 in0.0 mm
01:34 AM 62.6°F17.0°C 57.0°F13.9°C 82% 0.9 mph W1.4 kmh W 3.1 mph5.0 kmh 30.00 in1015.9 mb 0.00 in0.0 mm 0.00 in0.0 mm 0.00 in0.0 mm
01:39 AM 62.6°F17.0°C 57.4°F14.1°C 83% Calm Calm 2.9 mph4.7 kmh 30.00 in1015.9 mb 0.00 in0.0 mm 0.00 in0.0 mm 0.00 in0.0 mm
01:44 AM 62.6°F17.0°C 57.4°F14.1°C 83% Calm Calm 2.9 mph4.7 kmh 29.97 in1014.9 mb 0.00 in0.0 mm 0.00 in0.0 mm 0.00 in0.0 mm
01:49 AM 62.6°F17.0°C 57.4°F14.1°C 83% Calm Calm 2.0 mph3.2 kmh 29.97 in1014.9 mb 0.00 in0.0 mm 0.00 in0.0 mm 0.00 in0.0 mm
01:55 AM 62.6°F17.0°C 57.4°F14.1°C 83% Calm Calm 2.0 mph3.2 kmh 29.97 in1014.9 mb 0.00 in0.0 mm 0.00 in0.0 mm 0.00 in0.0 mm
02:00 AM 62.4°F16.9°C 57.2°F14.0°C 83% Calm Calm -- 29.97 in1014.9 mb 0.00 in0.0 mm 0.00 in0.0 mm 0.00 in0.0 mm
02:05 AM 62.4°F16.9°C 57.2°F14.0°C 83% 1.6 mph NNE2.6 kmh NNE 1.6 mph2.6 kmh 29.97 in1014.9 mb 0.00 in0.0 mm 0.00 in0.0 mm 0.00 in0.0 mm
02:09 AM 62.6°F17.0°C 57.4°F14.1°C 83% Calm Calm 1.6 mph2.6 kmh 29.97 in1014.9 mb 0.00 in0.0 mm 0.00 in0.0 mm 0.00 in0.0 mm
02:14 AM 62.4°F16.9°C 57.2°F14.0°C 83% Calm Calm -- 29.97 in1014.9 mb 0.00 in0.0 mm 0.00 in0.0 mm 0.00 in0.0 mm
02:19 AM 62.4°F16.9°C 57.5°F14.2°C 84% Calm Calm 2.0 mph3.2 kmh 29.97 in1014.9 mb 0.00 in0.0 mm 0.00 in0.0 mm 0.00 in0.0 mm
02:24 AM 62.4°F16.9°C 57.5°F14.2°C 84% Calm Calm 2.7 mph4.3 kmh 29.97 in1014.9 mb 0.00 in0.0 mm 0.00 in0.0 mm 0.00 in0.0 mm
02:29 AM 62.4°F16.9°C 57.9°F14.4°C 85% Calm Calm 1.6 mph2.6 kmh 29.97 in1014.9 mb 0.00 in0.0 mm 0.00 in0.0 mm 0.00 in0.0 mm
02:34 AM 62.4°F16.9°C 57.9°F14.4°C 85% Calm Calm -- 29.97 in1014.9 mb 0.00 in0.0 mm 0.00 in0.0 mm 0.00 in0.0 mm
02:38 AM 62.4°F16.9°C 57.9°F14.4°C 85% Calm Calm 1.3 mph2.1 kmh 29.97 in1014.9 mb 0.00 in0.0 mm 0.00 in0.0 mm 0.00 in0.0 mm
02:44 AM 62.4°F16.9°C 57.9°F14.4°C 85% 2.7 mph WNW4.3 kmh WNW 2.7 mph4.3 kmh 29.97 in1014.9 mb 0.00 in0.0 mm 0.00 in0.0 mm 0.00 in0.0 mm
02:49 AM 62.4°F16.9°C 57.9°F14.4°C 85% Calm Calm 2.0 mph3.2 kmh 29.97 in1014.9 mb 0.00 in0.0 mm 0.00 in0.0 mm 0.00 in0.0 mm
02:54 AM 62.4°F16.9°C 57.9°F14.4°C 85% 2.9 mph W4.7 kmh W 2.9 mph4.7 kmh 29.97 in1014.9 mb 0.00 in0.0 mm 0.00 in0.0 mm 0.00 in0.0 mm
03:00 AM 62.4°F16.9°C 57.9°F14.4°C 85% Calm Calm 2.9 mph4.7 kmh 29.94 in1013.9 mb 0.00 in0.0 mm 0.00 in0.0 mm 0.00 in0.0 mm
03:05 AM 62.4°F16.9°C 57.9°F14.4°C 85% Calm Calm 1.6 mph2.6 kmh 29.94 in1013.9 mb 0.00 in0.0 mm 0.00 in0.0 mm 0.00 in0.0 mm
03:09 AM 62.4°F16.9°C 57.9°F14.4°C 85% Calm Calm 2.2 mph3.5 kmh 29.94 in1013.9 mb 0.00 in0.0 mm 0.00 in0.0 mm 0.00 in0.0 mm
03:14 AM 62.4°F16.9°C 57.9°F14.4°C 85% Calm Calm -- 29.97 in1014.9 mb 0.00 in0.0 mm 0.00 in0.0 mm 0.00 in0.0 mm
03:19 AM 62.4°F16.9°C 57.9°F14.4°C 85% Calm Calm -- 29.97 in1014.9 mb 0.00 in0.0 mm 0.00 in0.0 mm 0.00 in0.0 mm
03:24 AM 62.4°F16.9°C 57.9°F14.4°C 85% 1.1 mph WNW1.8 kmh WNW 1.1 mph1.8 kmh 29.97 in1014.9 mb 0.00 in0.0 mm 0.00 in0.0 mm 0.00 in0.0 mm
03:29 AM 62.4°F16.9°C 57.9°F14.4°C 85% Calm Calm 2.2 mph3.5 kmh 29.97 in1014.9 mb 0.00 in0.0 mm 0.00 in0.0 mm 0.00 in0.0 mm
03:34 AM 62.4°F16.9°C 57.9°F14.4°C 85% 1.3 mph NW2.1 kmh NW 2.7 mph4.3 kmh 29.97 in1014.9 mb 0.00 in0.0 mm 0.00 in0.0 mm 0.00 in0.0 mm
03:39 AM 62.2°F16.8°C 57.4°F14.1°C 84% Calm Calm -- 29.97 in1014.9 mb 0.00 in0.0 mm 0.00 in0.0 mm 0.00 in0.0 mm
03:44 AM 62.2°F16.8°C 57.4°F14.1°C 84% 1.6 mph WNW2.6 kmh WNW 2.7 mph4.3 kmh 29.94 in1013.9 mb 0.00 in0.0 mm 0.00 in0.0 mm 0.00 in0.0 mm
03:49 AM 62.2°F16.8°C 57.4°F14.1°C 84% Calm Calm 2.0 mph3.2 kmh 29.94 in1013.9 mb 0.00 in0.0 mm 0.00 in0.0 mm 0.00 in0.0 mm
03:53 AM 62.2°F16.8°C 57.4°F14.1°C 84% Calm Calm -- 29.94 in1013.9 mb 0.00 in0.0 mm 0.00 in0.0 mm 0.00 in0.0 mm
04:00 AM 62.1°F16.7°C 57.5°F14.2°C 85% Calm Calm -- 29.94 in1013.9 mb 0.00 in0.0 mm 0.00 in0.0 mm 0.00 in0.0 mm
04:05 AM 62.1°F16.7°C 57.5°F14.2°C 85% Calm Calm -- 29.94 in1013.9 mb 0.00 in0.0 mm 0.00 in0.0 mm 0.00 in0.0 mm
04:08 AM 62.1°F16.7°C 57.5°F14.2°C 85% Calm Calm 2.2 mph3.5 kmh 29.94 in1013.9 mb 0.00 in0.0 mm 0.00 in0.0 mm 0.00 in0.0 mm
04:14 AM 62.1°F16.7°C 57.5°F14.2°C 85% Calm Calm -- 29.94 in1013.9 mb 0.00 in0.0 mm 0.00 in0.0 mm 0.00 in0.0 mm
04:19 AM 62.2°F16.8°C 58.0°F14.4°C 86% 2.0 mph W3.2 kmh W 3.6 mph5.8 kmh 29.94 in1013.9 mb 0.00 in0.0 mm 0.00 in0.0 mm 0.00 in0.0 mm
04:24 AM 62.1°F16.7°C 57.8°F14.3°C 86% Calm Calm 2.5 mph4.0 kmh 29.94 in1013.9 mb 0.00 in0.0 mm 0.00 in0.0 mm 0.00 in0.0 mm
04:29 AM 62.1°F16.7°C 57.8°F14.3°C 86% Calm Calm -- 29.94 in1013.9 mb 0.00 in0.0 mm 0.00 in0.0 mm 0.00 in0.0 mm
04:34 AM 62.1°F16.7°C 57.8°F14.3°C 86% 2.2 mph WNW3.5 kmh WNW 2.7 mph4.3 kmh 29.94 in1013.9 mb 0.00 in0.0 mm 0.00 in0.0 mm 0.00 in0.0 mm
04:39 AM 61.9°F16.6°C 58.0°F14.4°C 87% 2.9 mph WNW4.7 kmh WNW 3.1 mph5.0 kmh 29.94 in1013.9 mb 0.00 in0.0 mm 0.00 in0.0 mm 0.00 in0.0 mm
04:44 AM 61.9°F16.6°C 58.0°F14.4°C 87% Calm Calm 2.7 mph4.3 kmh 29.94 in1013.9 mb 0.00 in0.0 mm 0.00 in0.0 mm 0.00 in0.0 mm
04:49 AM 61.9°F16.6°C 58.0°F14.4°C 87% Calm Calm 2.2 mph3.5 kmh 29.94 in1013.9 mb 0.00 in0.0 mm 0.00 in0.0 mm 0.00 in0.0 mm
04:55 AM 61.9°F16.6°C 58.0°F14.4°C 87% 2.9 mph W4.7 kmh W 2.9 mph4.7 kmh 29.94 in1013.9 mb 0.00 in0.0 mm 0.00 in0.0 mm 0.00 in0.0 mm
05:00 AM 61.9°F16.6°C 58.0°F14.4°C 87% 2.5 mph W4.0 kmh W 2.5 mph4.0 kmh 29.94 in1013.9 mb 0.00 in0.0 mm 0.00 in0.0 mm 0.00 in0.0 mm
05:05 AM 61.9°F16.6°C 58.3°F14.6°C 88% Calm Calm 2.5 mph4.0 kmh 29.94 in1013.9 mb 0.00 in0.0 mm 0.00 in0.0 mm 0.00 in0.0 mm
05:10 AM 61.9°F16.6°C 58.3°F14.6°C 88% Calm Calm -- 29.94 in1013.9 mb 0.00 in0.0 mm 0.00 in0.0 mm 0.00 in0.0 mm
05:14 AM 61.9°F16.6°C 58.3°F14.6°C 88% Calm Calm -- 29.97 in1014.9 mb 0.00 in0.0 mm 0.00 in0.0 mm 0.00 in0.0 mm
05:19 AM 61.9°F16.6°C 58.0°F14.4°C 87% Calm Calm -- 29.97 in1014.9 mb 0.00 in0.0 mm 0.00 in0.0 mm 0.00 in0.0 mm
05:24 AM 61.9°F16.6°C 58.0°F14.4°C 87% Calm Calm -- 29.97 in1014.9 mb 0.00 in0.0 mm 0.00 in0.0 mm 0.00 in0.0 mm
05:29 AM 62.1°F16.7°C 58.2°F14.6°C 87% Calm Calm -- 29.97 in1014.9 mb 0.00 in0.0 mm 0.00 in0.0 mm 0.00 in0.0 mm
05:34 AM 62.1°F16.7°C 58.2°F14.6°C 87% Calm Calm -- 29.97 in1014.9 mb 0.00 in0.0 mm 0.00 in0.0 mm 0.00 in0.0 mm
05:39 AM 62.1°F16.7°C 58.2°F14.6°C 87% Calm Calm -- 29.97 in1014.9 mb 0.00 in0.0 mm 0.00 in0.0 mm 0.00 in0.0 mm
05:44 AM 62.1°F16.7°C 58.2°F14.6°C 87% 2.0 mph NNE3.2 kmh NNE 3.1 mph5.0 kmh 29.97 in1014.9 mb 0.00 in0.0 mm 0.00 in0.0 mm 0.00 in0.0 mm
05:49 AM 62.2°F16.8°C 58.3°F14.6°C 87% Calm Calm 2.0 mph3.2 kmh 29.97 in1014.9 mb 0.00 in0.0 mm 0.00 in0.0 mm 0.00 in0.0 mm
05:54 AM 62.2°F16.8°C 58.0°F14.4°C 86% Calm Calm -- 29.97 in1014.9 mb 0.00 in0.0 mm 0.00 in0.0 mm 0.00 in0.0 mm
06:00 AM 62.2°F16.8°C 58.0°F14.4°C 86% Calm Calm -- 29.97 in1014.9 mb 0.00 in0.0 mm 0.00 in0.0 mm 0.00 in0.0 mm
06:05 AM 62.2°F16.8°C 58.0°F14.4°C 86% 1.6 mph NW2.6 kmh NW 2.7 mph4.3 kmh 29.97 in1014.9 mb 0.00 in0.0 mm 0.00 in0.0 mm 0.00 in0.0 mm
06:10 AM 62.4°F16.9°C 58.2°F14.6°C 86% 1.6 mph NW2.6 kmh NW 2.0 mph3.2 kmh 29.97 in1014.9 mb 0.00 in0.0 mm 0.00 in0.0 mm 0.00 in0.0 mm
06:14 AM 62.4°F16.9°C 58.2°F14.6°C 86% Calm Calm 1.6 mph2.6 kmh 29.97 in1014.9 mb 0.00 in0.0 mm 0.00 in0.0 mm 0.00 in0.0 mm
06:19 AM 62.4°F16.9°C 58.2°F14.6°C 86% Calm Calm -- 29.97 in1014.9 mb 0.00 in0.0 mm 0.00 in0.0 mm 0.00 in0.0 mm
06:24 AM 62.6°F17.0°C 58.0°F14.4°C 85% 0.9 mph WNW1.4 kmh WNW 0.9 mph1.4 kmh 29.97 in1014.9 mb 0.00 in0.0 mm 0.00 in0.0 mm 0.00 in0.0 mm
06:29 AM 62.6°F17.0°C 58.0°F14.4°C 85% Calm Calm 2.0 mph3.2 kmh 29.97 in1014.9 mb 0.00 in0.0 mm 0.00 in0.0 mm 0.00 in0.0 mm
06:34 AM 62.6°F17.0°C 58.0°F14.4°C 85% Calm Calm 2.5 mph4.0 kmh 29.97 in1014.9 mb 0.00 in0.0 mm 0.00 in0.0 mm 0.00 in0.0 mm
06:39 AM 62.6°F17.0°C 58.4°F14.7°C 86% 2.2 mph WNW3.5 kmh WNW 2.9 mph4.7 kmh 29.97 in1014.9 mb 0.00 in0.0 mm 0.00 in0.0 mm 0.00 in0.0 mm
06:44 AM 62.8°F17.1°C 58.5°F14.7°C 86% Calm Calm 1.1 mph1.8 kmh 29.97 in1014.9 mb 0.00 in0.0 mm 0.00 in0.0 mm 0.00 in0.0 mm
06:49 AM 63.0°F17.2°C 58.7°F14.8°C 86% Calm Calm -- 29.97 in1014.9 mb 0.00 in0.0 mm 0.00 in0.0 mm 0.00 in0.0 mm
06:54 AM 63.0°F17.2°C 58.7°F14.8°C 86% Calm Calm -- 29.97 in1014.9 mb 0.00 in0.0 mm 0.00 in0.0 mm 0.00 in0.0 mm
07:00 AM 63.1°F17.3°C 58.6°F14.8°C 85% Calm Calm -- 29.97 in1014.9 mb 0.00 in0.0 mm 0.00 in0.0 mm 0.00 in0.0 mm
07:05 AM 63.1°F17.3°C 58.6°F14.8°C 85% Calm Calm -- 29.97 in1014.9 mb 0.00 in0.0 mm 0.00 in0.0 mm 0.00 in0.0 mm
07:10 AM 63.3°F17.4°C 58.7°F14.8°C 85% Calm Calm 1.6 mph2.6 kmh 29.97 in1014.9 mb 0.00 in0.0 mm 0.00 in0.0 mm 0.00 in0.0 mm
07:14 AM 63.3°F17.4°C 58.7°F14.8°C 85% Calm Calm -- 29.97 in1014.9 mb 0.00 in0.0 mm 0.00 in0.0 mm 0.00 in0.0 mm
07:19 AM 63.5°F17.5°C 58.9°F14.9°C 85% Calm Calm -- 29.97 in1014.9 mb 0.00 in0.0 mm 0.00 in0.0 mm 0.00 in0.0 mm
07:24 AM 63.5°F17.5°C 58.6°F14.8°C 84% Calm Calm -- 29.97 in1014.9 mb 0.00 in0.0 mm 0.00 in0.0 mm 0.00 in0.0 mm
07:29 AM 63.9°F17.7°C 59.3°F15.2°C 85% Calm Calm -- 29.97 in1014.9 mb 0.00 in0.0 mm 0.00 in0.0 mm 0.00 in0.0 mm
07:34 AM 64.2°F17.9°C 59.6°F15.3°C 85% Calm Calm -- 29.97 in1014.9 mb 0.00 in0.0 mm 0.00 in0.0 mm 0.00 in0.0 mm
07:39 AM 64.6°F18.1°C 59.6°F15.3°C 84% Calm Calm -- 29.97 in1014.9 mb 0.00 in0.0 mm 0.00 in0.0 mm 0.00 in0.0 mm
07:44 AM 64.6°F18.1°C 59.3°F15.2°C 83% Calm Calm -- 29.97 in1014.9 mb 0.00 in0.0 mm 0.00 in0.0 mm 0.00 in0.0 mm
07:49 AM 64.8°F18.2°C 59.5°F15.3°C 83% Calm Calm -- 29.97 in1014.9 mb 0.00 in0.0 mm 0.00 in0.0 mm 0.00 in0.0 mm
07:54 AM 64.8°F18.2°C 59.1°F15.1°C 82% Calm Calm -- 29.97 in1014.9 mb 0.00 in0.0 mm 0.00 in0.0 mm 0.00 in0.0 mm
08:00 AM 64.9°F18.3°C 59.3°F15.2°C 82% 1.6 mph NW2.6 kmh NW 1.6 mph2.6 kmh 29.97 in1014.9 mb 0.00 in0.0 mm 0.00 in0.0 mm 0.00 in0.0 mm
08:05 AM 64.9°F18.3°C 59.0°F15.0°C 81% 2.2 mph NW3.5 kmh NW 2.2 mph3.5 kmh 30.00 in1015.9 mb 0.00 in0.0 mm 0.00 in0.0 mm 0.00 in0.0 mm
08:10 AM 64.9°F18.3°C 58.6°F14.8°C 80% Calm Calm 2.2 mph3.5 kmh 30.00 in1015.9 mb 0.00 in0.0 mm 0.00 in0.0 mm 0.00 in0.0 mm
08:14 AM 65.1°F18.4°C 58.8°F14.9°C 80% Calm Calm 1.3 mph2.1 kmh 29.97 in1014.9 mb 0.00 in0.0 mm 0.00 in0.0 mm 0.00 in0.0 mm
08:19 AM 65.3°F18.5°C 58.6°F14.8°C 79% Calm Calm -- 29.97 in1014.9 mb 0.00 in0.0 mm 0.00 in0.0 mm 0.00 in0.0 mm
08:24 AM 65.3°F18.5°C 58.3°F14.6°C 78% Calm Calm -- 29.97 in1014.9 mb 0.00 in0.0 mm 0.00 in0.0 mm 0.00 in0.0 mm
08:29 AM 65.5°F18.6°C 58.1°F14.5°C 77% Calm Calm 1.3 mph2.1 kmh 29.97 in1014.9 mb 0.00 in0.0 mm 0.00 in0.0 mm 0.00 in0.0 mm
08:34 AM 65.5°F18.6°C 58.1°F14.5°C 77% Calm Calm 1.6 mph2.6 kmh 29.97 in1014.9 mb 0.00 in0.0 mm 0.00 in0.0 mm 0.00 in0.0 mm
08:39 AM 65.7°F18.7°C 57.9°F14.4°C 76% 1.1 mph WNW1.8 kmh WNW 1.6 mph2.6 kmh 29.97 in1014.9 mb 0.00 in0.0 mm 0.00 in0.0 mm 0.00 in0.0 mm
08:44 AM 65.8°F18.8°C 57.3°F14.1°C 74% Calm Calm -- 30.00 in1015.9 mb 0.00 in0.0 mm 0.00 in0.0 mm 0.00 in0.0 mm
08:49 AM 65.8°F18.8°C 57.0°F13.9°C 73% 1.6 mph WSW2.6 kmh WSW 1.6 mph2.6 kmh 30.00 in1015.9 mb 0.00 in0.0 mm 0.00 in0.0 mm 0.00 in0.0 mm
08:54 AM 65.8°F18.8°C 56.6°F13.7°C 72% Calm Calm 0.9 mph1.4 kmh 30.00 in1015.9 mb 0.00 in0.0 mm 0.00 in0.0 mm 0.00 in0.0 mm
09:00 AM 65.5°F18.6°C 55.8°F13.2°C 71% 2.2 mph WSW3.5 kmh WSW 2.5 mph4.0 kmh 29.97 in1014.9 mb 0.00 in0.0 mm 0.00 in0.0 mm 0.00 in0.0 mm
09:05 AM 65.3°F18.5°C 55.3°F12.9°C 70% Calm Calm 2.5 mph4.0 kmh 29.97 in1014.9 mb 0.00 in0.0 mm 0.00 in0.0 mm 0.00 in0.0 mm
09:10 AM 65.3°F18.5°C 55.3°F12.9°C 70% 0.9 mph W1.4 kmh W 2.9 mph4.7 kmh 29.97 in1014.9 mb 0.00 in0.0 mm 0.00 in0.0 mm 0.00 in0.0 mm
09:14 AM 65.1°F18.4°C 54.7°F12.6°C 69% 2.2 mph W3.5 kmh W 2.2 mph3.5 kmh 30.00 in1015.9 mb 0.00 in0.0 mm 0.00 in0.0 mm 0.00 in0.0 mm
09:19 AM 65.5°F18.6°C 55.5°F13.1°C 70% Calm Calm 3.1 mph5.0 kmh 30.00 in1015.9 mb 0.00 in0.0 mm 0.00 in0.0 mm 0.00 in0.0 mm
09:24 AM 65.5°F18.6°C 55.5°F13.1°C 70% 1.3 mph NW2.1 kmh NW 1.3 mph2.1 kmh 30.00 in1015.9 mb 0.00 in0.0 mm 0.00 in0.0 mm 0.00 in0.0 mm
09:29 AM 65.7°F18.7°C 55.6°F13.1°C 70% 2.0 mph NW3.2 kmh NW 2.0 mph3.2 kmh 30.00 in1015.9 mb 0.00 in0.0 mm 0.00 in0.0 mm 0.00 in0.0 mm
09:34 AM 65.7°F18.7°C 55.2°F12.9°C 69% Calm Calm 3.4 mph5.5 kmh 30.00 in1015.9 mb 0.00 in0.0 mm 0.00 in0.0 mm 0.00 in0.0 mm
09:39 AM 65.7°F18.7°C 55.2°F12.9°C 69% 2.2 mph WNW3.5 kmh WNW 2.5 mph4.0 kmh 30.00 in1015.9 mb 0.00 in0.0 mm 0.00 in0.0 mm 0.00 in0.0 mm
09:44 AM 65.7°F18.7°C 54.8°F12.7°C 68% 1.3 mph WNW2.1 kmh WNW 2.7 mph4.3 kmh 30.00 in1015.9 mb 0.00 in0.0 mm 0.00 in0.0 mm 0.00 in0.0 mm
09:49 AM 65.8°F18.8°C 55.0°F12.8°C 68% 0.9 mph WNW1.4 kmh WNW 2.7 mph4.3 kmh 30.00 in1015.9 mb 0.00 in0.0 mm 0.00 in0.0 mm 0.00 in0.0 mm
09:54 AM 66.0°F18.9°C 54.8°F12.7°C 67% 2.7 mph W4.3 kmh W 2.9 mph4.7 kmh 30.00 in1015.9 mb 0.00 in0.0 mm 0.00 in0.0 mm 0.00 in0.0 mm
10:00 AM 66.2°F19.0°C 54.5°F12.5°C 66% 1.6 mph W2.6 kmh W 2.7 mph4.3 kmh 29.97 in1014.9 mb 0.00 in0.0 mm 0.00 in0.0 mm 0.00 in0.0 mm
10:05 AM 66.2°F19.0°C 54.5°F12.5°C 66% 1.6 mph W2.6 kmh W 2.9 mph4.7 kmh 29.97 in1014.9 mb 0.00 in0.0 mm 0.00 in0.0 mm 0.00 in0.0 mm
10:10 AM 66.4°F19.1°C 54.7°F12.6°C 66% Calm Calm -- 29.97 in1014.9 mb 0.00 in0.0 mm 0.00 in0.0 mm 0.00 in0.0 mm
10:14 AM 66.7°F19.3°C 55.0°F12.8°C 66% Calm Calm 1.6 mph2.6 kmh 30.00 in1015.9 mb 0.00 in0.0 mm 0.00 in0.0 mm 0.00 in0.0 mm
10:18 AM 66.6°F19.2°C 54.4°F12.4°C 65% 2.0 mph W3.2 kmh W 3.4 mph5.5 kmh 30.00 in1015.9 mb 0.00 in0.0 mm 0.00 in0.0 mm 0.00 in0.0 mm
10:24 AM 66.7°F19.3°C 54.2°F12.3°C 64% Calm Calm 1.6 mph2.6 kmh 30.00 in1015.9 mb 0.00 in0.0 mm 0.00 in0.0 mm 0.00 in0.0 mm
10:29 AM 66.7°F19.3°C 54.2°F12.3°C 64% 4.0 mph W6.4 kmh W 4.0 mph6.4 kmh 30.00 in1015.9 mb 0.00 in0.0 mm 0.00 in0.0 mm 0.00 in0.0 mm
10:34 AM 66.7°F19.3°C 54.2°F12.3°C 64% Calm Calm 3.8 mph6.1 kmh 30.00 in1015.9 mb 0.00 in0.0 mm 0.00 in0.0 mm 0.00 in0.0 mm
10:39 AM 67.1°F19.5°C 54.5°F12.5°C 64% 1.3 mph NE2.1 kmh NE 1.3 mph2.1 kmh 30.00 in1015.9 mb 0.00 in0.0 mm 0.00 in0.0 mm 0.00 in0.0 mm
10:44 AM 67.3°F19.6°C 54.7°F12.6°C 64% 0.9 mph NW1.4 kmh NW 2.5 mph4.0 kmh 30.00 in1015.9 mb 0.00 in0.0 mm 0.00 in0.0 mm 0.00 in0.0 mm
10:49 AM 67.5°F19.7°C 54.9°F12.7°C 64% 2.7 mph NW4.3 kmh NW 2.7 mph4.3 kmh 30.00 in1015.9 mb 0.00 in0.0 mm 0.00 in0.0 mm 0.00 in0.0 mm
10:54 AM 67.8°F19.9°C 55.2°F12.9°C 64% Calm Calm 3.4 mph5.5 kmh 30.00 in1015.9 mb 0.00 in0.0 mm 0.00 in0.0 mm 0.00 in0.0 mm
11:00 AM 67.8°F19.9°C 55.2°F12.9°C 64% 1.1 mph NE1.8 kmh NE 1.3 mph2.1 kmh 30.00 in1015.9 mb 0.00 in0.0 mm 0.00 in0.0 mm 0.00 in0.0 mm
11:05 AM 68.0°F20.0°C 55.0°F12.8°C 63% 2.0 mph NW3.2 kmh NW 2.0 mph3.2 kmh 30.00 in1015.9 mb 0.00 in0.0 mm 0.00 in0.0 mm 0.00 in0.0 mm
11:10 AM 68.4°F20.2°C 55.3°F12.9°C 63% 1.6 mph NW2.6 kmh NW 1.6 mph2.6 kmh 30.00 in1015.9 mb 0.00 in0.0 mm 0.00 in0.0 mm 0.00 in0.0 mm
11:15 AM 68.5°F20.3°C 55.5°F13.1°C 63% Calm Calm 1.6 mph2.6 kmh 30.00 in1015.9 mb 0.00 in0.0 mm 0.00 in0.0 mm 0.00 in0.0 mm
11:19 AM 68.9°F20.5°C 55.8°F13.2°C 63% Calm Calm 2.2 mph3.5 kmh 30.00 in1015.9 mb 0.00 in0.0 mm 0.00 in0.0 mm 0.00 in0.0 mm
11:24 AM 69.3°F20.7°C 55.7°F13.2°C 62% Calm Calm 1.3 mph2.1 kmh 30.00 in1015.9 mb 0.00 in0.0 mm 0.00 in0.0 mm 0.00 in0.0 mm
11:29 AM 69.8°F21.0°C 55.8°F13.2°C 61% 2.2 mph NE3.5 kmh NE 2.2 mph3.5 kmh 29.97 in1014.9 mb 0.00 in0.0 mm 0.00 in0.0 mm 0.00 in0.0 mm
11:34 AM 70.2°F21.2°C 56.1°F13.4°C 61% Calm Calm 1.1 mph1.8 kmh 29.97 in1014.9 mb 0.00 in0.0 mm 0.00 in0.0 mm 0.00 in0.0 mm
11:39 AM 70.3°F21.3°C 55.8°F13.2°C 60% 0.9 mph NNW1.4 kmh NNW 1.1 mph1.8 kmh 29.97 in1014.9 mb 0.00 in0.0 mm 0.00 in0.0 mm 0.00 in0.0 mm
11:44 AM 70.9°F21.6°C 56.3°F13.5°C 60% 4.0 mph NW6.4 kmh NW 4.0 mph6.4 kmh 29.97 in1014.9 mb 0.00 in0.0 mm 0.00 in0.0 mm 0.00 in0.0 mm
11:49 AM 70.9°F21.6°C 55.9°F13.3°C 59% Calm Calm 4.0 mph6.4 kmh 29.97 in1014.9 mb 0.00 in0.0 mm 0.00 in0.0 mm 0.00 in0.0 mm
11:54 AM 71.4°F21.9°C 56.4°F13.6°C 59% 1.1 mph SW1.8 kmh SW 1.1 mph1.8 kmh 29.97 in1014.9 mb 0.00 in0.0 mm 0.00 in0.0 mm 0.00 in0.0 mm
11:59 AM 71.1°F21.7°C 55.6°F13.1°C 58% 1.3 mph NNW2.1 kmh NNW 4.3 mph6.9 kmh 29.97 in1014.9 mb 0.00 in0.0 mm 0.00 in0.0 mm 0.00 in0.0 mm
12:09 PM 71.1°F21.7°C 55.6°F13.1°C 58% 0.9 mph WSW1.4 kmh WSW 2.9 mph4.7 kmh 29.97 in1014.9 mb 0.00 in0.0 mm 0.00 in0.0 mm 0.00 in0.0 mm
12:15 PM 71.2°F21.8°C 55.7°F13.2°C 58% 2.0 mph NW3.2 kmh NW 4.0 mph6.4 kmh 29.97 in1014.9 mb 0.00 in0.0 mm 0.00 in0.0 mm 0.00 in0.0 mm
12:19 PM 71.2°F21.8°C 55.7°F13.2°C 58% 2.7 mph WSW4.3 kmh WSW 2.7 mph4.3 kmh 29.97 in1014.9 mb 0.00 in0.0 mm 0.00 in0.0 mm 0.00 in0.0 mm
12:24 PM 71.1°F21.7°C 55.1°F12.8°C 57% Calm Calm 4.0 mph6.4 kmh 29.97 in1014.9 mb 0.00 in0.0 mm 0.00 in0.0 mm 0.00 in0.0 mm
12:28 PM 70.5°F21.4°C 54.6°F12.6°C 57% 1.6 mph NW2.6 kmh NW 5.6 mph9.0 kmh 29.97 in1014.9 mb 0.00 in0.0 mm 0.00 in0.0 mm 0.00 in0.0 mm
12:34 PM 69.8°F21.0°C 53.9°F12.2°C 57% 2.0 mph NNE3.2 kmh NNE 4.3 mph6.9 kmh 29.97 in1014.9 mb 0.00 in0.0 mm 0.00 in0.0 mm 0.00 in0.0 mm
12:39 PM 69.6°F20.9°C 54.2°F12.3°C 58% 2.5 mph NE4.0 kmh NE 2.5 mph4.0 kmh 29.97 in1014.9 mb 0.00 in0.0 mm 0.00 in0.0 mm 0.00 in0.0 mm
12:44 PM 69.4°F20.8°C 54.5°F12.5°C 59% Calm Calm 2.7 mph4.3 kmh 29.97 in1014.9 mb 0.00 in0.0 mm 0.00 in0.0 mm 0.00 in0.0 mm
12:49 PM 69.3°F20.7°C 54.3°F12.4°C 59% Calm Calm 1.6 mph2.6 kmh 29.97 in1014.9 mb 0.00 in0.0 mm 0.00 in0.0 mm 0.00 in0.0 mm
12:54 PM 69.1°F20.6°C 54.2°F12.3°C 59% 2.7 mph WNW4.3 kmh WNW 3.8 mph6.1 kmh 29.97 in1014.9 mb 0.00 in0.0 mm 0.00 in0.0 mm 0.00 in0.0 mm
12:59 PM 68.9°F20.5°C 54.5°F12.5°C 60% 0.9 mph NNW1.4 kmh NNW 4.0 mph6.4 kmh 29.97 in1014.9 mb 0.00 in0.0 mm 0.00 in0.0 mm 0.00 in0.0 mm
01:05 PM 69.3°F20.7°C 54.8°F12.7°C 60% 1.1 mph ESE1.8 kmh ESE 3.6 mph5.8 kmh 29.97 in1014.9 mb 0.00 in0.0 mm 0.00 in0.0 mm 0.00 in0.0 mm
01:10 PM 69.4°F20.8°C 55.0°F12.8°C 60% 1.1 mph NNW1.8 kmh NNW 2.0 mph3.2 kmh 29.97 in1014.9 mb 0.00 in0.0 mm 0.00 in0.0 mm 0.00 in0.0 mm
01:15 PM 70.0°F21.1°C 55.5°F13.1°C 60% 2.7 mph NNE4.3 kmh NNE 2.7 mph4.3 kmh 29.97 in1014.9 mb 0.00 in0.0 mm 0.00 in0.0 mm 0.00 in0.0 mm
01:19 PM 69.8°F21.0°C 54.8°F12.7°C 59% 2.2 mph W3.5 kmh W 2.7 mph4.3 kmh 29.97 in1014.9 mb 0.00 in0.0 mm 0.00 in0.0 mm 0.00 in0.0 mm
01:24 PM 69.3°F20.7°C 54.3°F12.4°C 59% Calm Calm 2.0 mph3.2 kmh 29.97 in1014.9 mb 0.00 in0.0 mm 0.00 in0.0 mm 0.00 in0.0 mm
01:29 PM 69.1°F20.6°C 54.6°F12.6°C 60% 2.7 mph NW4.3 kmh NW 3.4 mph5.5 kmh 29.97 in1014.9 mb 0.00 in0.0 mm 0.00 in0.0 mm 0.00 in0.0 mm
01:34 PM 69.3°F20.7°C 55.3°F12.9°C 61% 2.0 mph NW3.2 kmh NW 2.7 mph4.3 kmh 29.97 in1014.9 mb 0.00 in0.0 mm 0.00 in0.0 mm 0.00 in0.0 mm
01:39 PM 69.3°F20.7°C 55.3°F12.9°C 61% 2.0 mph NNW3.2 kmh NNW 2.0 mph3.2 kmh 29.97 in1014.9 mb 0.00 in0.0 mm 0.00 in0.0 mm 0.00 in0.0 mm
01:44 PM 68.9°F20.5°C 55.4°F13.0°C 62% 2.0 mph WNW3.2 kmh WNW 3.6 mph5.8 kmh 29.97 in1014.9 mb 0.00 in0.0 mm 0.00 in0.0 mm 0.00 in0.0 mm
01:49 PM 68.5°F20.3°C 55.0°F12.8°C 62% 0.9 mph NE1.4 kmh NE 2.0 mph3.2 kmh 29.97 in1014.9 mb 0.00 in0.0 mm 0.00 in0.0 mm 0.00 in0.0 mm
01:54 PM 68.4°F20.2°C 55.3°F12.9°C 63% Calm Calm 1.3 mph2.1 kmh 29.97 in1014.9 mb 0.00 in0.0 mm 0.00 in0.0 mm 0.00 in0.0 mm
01:59 PM 68.5°F20.3°C 55.5°F13.1°C 63% 1.1 mph NW1.8 kmh NW 1.1 mph1.8 kmh 29.97 in1014.9 mb 0.00 in0.0 mm 0.00 in0.0 mm 0.00 in0.0 mm
02:05 PM 68.4°F20.2°C 55.3°F12.9°C 63% 2.5 mph NNE4.0 kmh NNE 2.5 mph4.0 kmh 29.97 in1014.9 mb 0.00 in0.0 mm 0.00 in0.0 mm 0.00 in0.0 mm
02:10 PM 68.4°F20.2°C 55.3°F12.9°C 63% 2.5 mph SSW4.0 kmh SSW 2.7 mph4.3 kmh 29.97 in1014.9 mb 0.00 in0.0 mm 0.00 in0.0 mm 0.00 in0.0 mm
02:15 PM 68.4°F20.2°C 55.7°F13.2°C 64% Calm Calm 2.5 mph4.0 kmh 29.94 in1013.9 mb 0.00 in0.0 mm 0.00 in0.0 mm 0.00 in0.0 mm
02:19 PM 68.5°F20.3°C 55.9°F13.3°C 64% 1.1 mph NW1.8 kmh NW 1.3 mph2.1 kmh 29.94 in1013.9 mb 0.00 in0.0 mm 0.00 in0.0 mm 0.00 in0.0 mm
02:24 PM 68.7°F20.4°C 56.1°F13.4°C 64% Calm Calm 1.6 mph2.6 kmh 29.94 in1013.9 mb 0.00 in0.0 mm 0.00 in0.0 mm 0.00 in0.0 mm
02:29 PM 68.7°F20.4°C 55.6°F13.1°C 63% 3.4 mph WSW5.5 kmh WSW 3.4 mph5.5 kmh 29.94 in1013.9 mb 0.00 in0.0 mm 0.00 in0.0 mm 0.00 in0.0 mm
02:34 PM 68.5°F20.3°C 55.5°F13.1°C 63% 3.8 mph NNE6.1 kmh NNE 3.8 mph6.1 kmh 29.94 in1013.9 mb 0.00 in0.0 mm 0.00 in0.0 mm 0.00 in0.0 mm
02:39 PM 68.5°F20.3°C 55.9°F13.3°C 64% 1.1 mph NNE1.8 kmh NNE 3.8 mph6.1 kmh 29.94 in1013.9 mb 0.00 in0.0 mm 0.00 in0.0 mm 0.00 in0.0 mm
02:44 PM 68.5°F20.3°C 55.9°F13.3°C 64% 2.0 mph NE3.2 kmh NE 3.1 mph5.0 kmh 29.94 in1013.9 mb 0.00 in0.0 mm 0.00 in0.0 mm 0.00 in0.0 mm
02:49 PM 68.5°F20.3°C 55.9°F13.3°C 64% 1.1 mph NE1.8 kmh NE 4.3 mph6.9 kmh 29.94 in1013.9 mb 0.00 in0.0 mm 0.00 in0.0 mm 0.00 in0.0 mm
02:54 PM 68.5°F20.3°C 55.9°F13.3°C 64% 4.0 mph NW6.4 kmh NW 4.0 mph6.4 kmh 29.94 in1013.9 mb 0.00 in0.0 mm 0.00 in0.0 mm 0.00 in0.0 mm
02:59 PM 68.4°F20.2°C 55.7°F13.2°C 64% 1.3 mph W2.1 kmh W 3.1 mph5.0 kmh 29.94 in1013.9 mb 0.00 in0.0 mm 0.00 in0.0 mm 0.00 in0.0 mm
03:05 PM 68.4°F20.2°C 56.2°F13.4°C 65% Calm Calm 3.1 mph5.0 kmh 29.94 in1013.9 mb 0.00 in0.0 mm 0.00 in0.0 mm 0.00 in0.0 mm
03:10 PM 68.5°F20.3°C 56.3°F13.5°C 65% Calm Calm -- 29.94 in1013.9 mb 0.00 in0.0 mm 0.00 in0.0 mm 0.00 in0.0 mm
03:15 PM 68.4°F20.2°C 55.7°F13.2°C 64% Calm Calm 0.9 mph1.4 kmh 29.94 in1013.9 mb 0.00 in0.0 mm 0.00 in0.0 mm 0.00 in0.0 mm
03:19 PM 68.4°F20.2°C 55.7°F13.2°C 64% 2.7 mph NNE4.3 kmh NNE 2.7 mph4.3 kmh 29.94 in1013.9 mb 0.00 in0.0 mm 0.00 in0.0 mm 0.00 in0.0 mm
03:24 PM 68.7°F20.4°C 56.5°F13.6°C 65% 2.5 mph NE4.0 kmh NE 2.5 mph4.0 kmh 29.94 in1013.9 mb 0.00 in0.0 mm 0.00 in0.0 mm 0.00 in0.0 mm
03:29 PM 68.9°F20.5°C 56.2°F13.4°C 64% Calm Calm 2.5 mph4.0 kmh 29.94 in1013.9 mb 0.00 in0.0 mm 0.00 in0.0 mm 0.00 in0.0 mm
03:34 PM 69.1°F20.6°C 56.4°F13.6°C 64% 2.9 mph N4.7 kmh N 2.9 mph4.7 kmh 29.94 in1013.9 mb 0.00 in0.0 mm 0.00 in0.0 mm 0.00 in0.0 mm
03:39 PM 69.1°F20.6°C 56.0°F13.3°C 63% 3.4 mph NE5.5 kmh NE 3.4 mph5.5 kmh 29.94 in1013.9 mb 0.00 in0.0 mm 0.00 in0.0 mm 0.00 in0.0 mm
03:44 PM 69.3°F20.7°C 56.1°F13.4°C 63% 2.0 mph NNE3.2 kmh NNE 2.9 mph4.7 kmh 29.91 in1012.9 mb 0.00 in0.0 mm 0.00 in0.0 mm 0.00 in0.0 mm
03:49 PM 69.3°F20.7°C 56.1°F13.4°C 63% Calm Calm 2.9 mph4.7 kmh 29.91 in1012.9 mb 0.00 in0.0 mm 0.00 in0.0 mm 0.00 in0.0 mm
03:54 PM 69.4°F20.8°C 55.9°F13.3°C 62% Calm Calm 1.3 mph2.1 kmh 29.91 in1012.9 mb 0.00 in0.0 mm 0.00 in0.0 mm 0.00 in0.0 mm
03:59 PM 69.4°F20.8°C 55.9°F13.3°C 62% 2.9 mph NNE4.7 kmh NNE 2.9 mph4.7 kmh 29.91 in1012.9 mb 0.00 in0.0 mm 0.00 in0.0 mm 0.00 in0.0 mm
04:04 PM 69.3°F20.7°C 55.7°F13.2°C 62% 1.1 mph W1.8 kmh W 5.4 mph8.7 kmh 29.91 in1012.9 mb 0.00 in0.0 mm 0.00 in0.0 mm 0.00 in0.0 mm
04:10 PM 69.3°F20.7°C 55.7°F13.2°C 62% 2.0 mph NNE3.2 kmh NNE 5.4 mph8.7 kmh 29.91 in1012.9 mb 0.00 in0.0 mm 0.00 in0.0 mm 0.00 in0.0 mm
04:15 PM 69.3°F20.7°C 55.7°F13.2°C 62% 1.3 mph N2.1 kmh N 2.0 mph3.2 kmh 29.91 in1012.9 mb 0.00 in0.0 mm 0.00 in0.0 mm 0.00 in0.0 mm
04:20 PM 69.1°F20.6°C 55.5°F13.1°C 62% 2.7 mph N4.3 kmh N 2.7 mph4.3 kmh 29.91 in1012.9 mb 0.00 in0.0 mm 0.00 in0.0 mm 0.00 in0.0 mm
04:24 PM 68.9°F20.5°C 55.4°F13.0°C 62% 3.4 mph NE5.5 kmh NE 3.4 mph5.5 kmh 29.91 in1012.9 mb 0.00 in0.0 mm 0.00 in0.0 mm 0.00 in0.0 mm
04:29 PM 68.7°F20.4°C 55.2°F12.9°C 62% 2.7 mph N4.3 kmh N 2.7 mph4.3 kmh 29.91 in1012.9 mb 0.00 in0.0 mm 0.00 in0.0 mm 0.00 in0.0 mm
04:34 PM 68.7°F20.4°C 55.2°F12.9°C 62% 2.7 mph NE4.3 kmh NE 2.7 mph4.3 kmh 29.91 in1012.9 mb 0.00 in0.0 mm 0.00 in0.0 mm 0.00 in0.0 mm
04:39 PM 68.9°F20.5°C 55.4°F13.0°C 62% 2.5 mph N4.0 kmh N 2.5 mph4.0 kmh 29.91 in1012.9 mb 0.00 in0.0 mm 0.00 in0.0 mm 0.00 in0.0 mm
04:44 PM 69.1°F20.6°C 56.0°F13.3°C 63% 2.0 mph N3.2 kmh N 2.0 mph3.2 kmh 29.91 in1012.9 mb 0.00 in0.0 mm 0.00 in0.0 mm 0.00 in0.0 mm
04:49 PM 69.3°F20.7°C 56.1°F13.4°C 63% Calm Calm 1.3 mph2.1 kmh 29.91 in1012.9 mb 0.00 in0.0 mm 0.00 in0.0 mm 0.00 in0.0 mm
04:54 PM 69.3°F20.7°C 56.1°F13.4°C 63% Calm Calm 1.6 mph2.6 kmh 29.91 in1012.9 mb 0.00 in0.0 mm 0.00 in0.0 mm 0.00 in0.0 mm
04:59 PM 68.9°F20.5°C 55.8°F13.2°C 63% 1.6 mph NW2.6 kmh NW 3.1 mph5.0 kmh 29.91 in1012.9 mb 0.00 in0.0 mm 0.00 in0.0 mm 0.00 in0.0 mm
05:04 PM 68.7°F20.4°C 55.6°F13.1°C 63% Calm Calm 2.0 mph3.2 kmh 29.91 in1012.9 mb 0.00 in0.0 mm 0.00 in0.0 mm 0.00 in0.0 mm
05:10 PM 68.7°F20.4°C 55.6°F13.1°C 63% Calm Calm 2.5 mph4.0 kmh 29.91 in1012.9 mb 0.00 in0.0 mm 0.00 in0.0 mm 0.00 in0.0 mm
05:14 PM 68.7°F20.4°C 55.6°F13.1°C 63% 0.9 mph N1.4 kmh N 2.0 mph3.2 kmh 29.91 in1012.9 mb 0.00 in0.0 mm 0.00 in0.0 mm 0.00 in0.0 mm
05:20 PM 68.4°F20.2°C 55.7°F13.2°C 64% 1.1 mph NW1.8 kmh NW 3.8 mph6.1 kmh 29.91 in1012.9 mb 0.00 in0.0 mm 0.00 in0.0 mm 0.00 in0.0 mm
05:24 PM 68.4°F20.2°C 55.7°F13.2°C 64% Calm Calm 1.1 mph1.8 kmh 29.91 in1012.9 mb 0.00 in0.0 mm 0.00 in0.0 mm 0.00 in0.0 mm
05:28 PM 67.6°F19.8°C 55.0°F12.8°C 64% 2.0 mph NW3.2 kmh NW 3.8 mph6.1 kmh 29.91 in1012.9 mb 0.00 in0.0 mm 0.00 in0.0 mm 0.00 in0.0 mm
05:34 PM 67.5°F19.7°C 55.3°F12.9°C 65% Calm Calm 1.6 mph2.6 kmh 29.91 in1012.9 mb 0.00 in0.0 mm 0.00 in0.0 mm 0.00 in0.0 mm
05:39 PM 67.3°F19.6°C 55.6°F13.1°C 66% 1.6 mph WNW2.6 kmh WNW 2.7 mph4.3 kmh 29.91 in1012.9 mb 0.00 in0.0 mm 0.00 in0.0 mm 0.00 in0.0 mm
05:44 PM 67.3°F19.6°C 55.6°F13.1°C 66% Calm Calm -- 29.91 in1012.9 mb 0.00 in0.0 mm 0.00 in0.0 mm 0.00 in0.0 mm
05:49 PM 67.3°F19.6°C 56.0°F13.3°C 67% Calm Calm 1.6 mph2.6 kmh 29.91 in1012.9 mb 0.00 in0.0 mm 0.00 in0.0 mm 0.00 in0.0 mm
05:54 PM 67.1°F19.5°C 55.8°F13.2°C 67% 1.6 mph W2.6 kmh W 3.8 mph6.1 kmh 29.91 in1012.9 mb 0.00 in0.0 mm 0.00 in0.0 mm 0.00 in0.0 mm
05:59 PM 66.9°F19.4°C 56.0°F13.3°C 68% 3.6 mph W5.8 kmh W 3.6 mph5.8 kmh 29.91 in1012.9 mb 0.00 in0.0 mm 0.00 in0.0 mm 0.00 in0.0 mm
06:04 PM 66.7°F19.3°C 55.9°F13.3°C 68% 3.6 mph W5.8 kmh W 3.6 mph5.8 kmh 29.91 in1012.9 mb 0.00 in0.0 mm 0.00 in0.0 mm 0.00 in0.0 mm
06:10 PM 66.6°F19.2°C 56.1°F13.4°C 69% Calm Calm 2.5 mph4.0 kmh 29.91 in1012.9 mb 0.00 in0.0 mm 0.00 in0.0 mm 0.00 in0.0 mm
06:15 PM 66.6°F19.2°C 56.1°F13.4°C 69% Calm Calm -- 29.91 in1012.9 mb 0.00 in0.0 mm 0.00 in0.0 mm 0.00 in0.0 mm
06:20 PM 66.4°F19.1°C 55.9°F13.3°C 69% 3.1 mph W5.0 kmh W 3.1 mph5.0 kmh 29.91 in1012.9 mb 0.00 in0.0 mm 0.00 in0.0 mm 0.00 in0.0 mm
06:24 PM 66.2°F19.0°C 56.1°F13.4°C 70% 1.1 mph W1.8 kmh W 3.1 mph5.0 kmh 29.91 in1012.9 mb 0.00 in0.0 mm 0.00 in0.0 mm 0.00 in0.0 mm
06:28 PM 66.0°F18.9°C 56.0°F13.3°C 70% Calm Calm 3.1 mph5.0 kmh 29.91 in1012.9 mb 0.00 in0.0 mm 0.00 in0.0 mm 0.00 in0.0 mm
06:34 PM 66.0°F18.9°C 56.0°F13.3°C 70% Calm Calm -- 29.91 in1012.9 mb 0.00 in0.0 mm 0.00 in0.0 mm 0.00 in0.0 mm
06:39 PM 66.0°F18.9°C 56.4°F13.6°C 71% 1.3 mph NNE2.1 kmh NNE 1.6 mph2.6 kmh 29.91 in1012.9 mb 0.00 in0.0 mm 0.00 in0.0 mm 0.00 in0.0 mm
06:44 PM 65.8°F18.8°C 56.2°F13.4°C 71% Calm Calm -- 29.91 in1012.9 mb 0.00 in0.0 mm 0.00 in0.0 mm 0.00 in0.0 mm
06:49 PM 65.7°F18.7°C 56.0°F13.3°C 71% Calm Calm -- 29.91 in1012.9 mb 0.00 in0.0 mm 0.00 in0.0 mm 0.00 in0.0 mm
06:54 PM 65.7°F18.7°C 56.0°F13.3°C 71% Calm Calm 2.2 mph3.5 kmh 29.91 in1012.9 mb 0.00 in0.0 mm 0.00 in0.0 mm 0.00 in0.0 mm
06:59 PM 65.5°F18.6°C 56.2°F13.4°C 72% Calm Calm 1.6 mph2.6 kmh 29.91 in1012.9 mb 0.00 in0.0 mm 0.00 in0.0 mm 0.00 in0.0 mm
07:04 PM 65.3°F18.5°C 56.1°F13.4°C 72% 2.5 mph NW4.0 kmh NW 2.5 mph4.0 kmh 29.91 in1012.9 mb 0.00 in0.0 mm 0.00 in0.0 mm 0.00 in0.0 mm
07:09 PM 65.1°F18.4°C 55.9°F13.3°C 72% 2.5 mph WNW4.0 kmh WNW 2.7 mph4.3 kmh 29.91 in1012.9 mb 0.00 in0.0 mm 0.00 in0.0 mm 0.00 in0.0 mm
07:15 PM 64.9°F18.3°C 56.1°F13.4°C 73% Calm Calm 2.9 mph4.7 kmh 29.91 in1012.9 mb 0.00 in0.0 mm 0.00 in0.0 mm 0.00 in0.0 mm
07:20 PM 64.9°F18.3°C 56.1°F13.4°C 73% 1.3 mph NNE2.1 kmh NNE 1.3 mph2.1 kmh 29.91 in1012.9 mb 0.00 in0.0 mm 0.00 in0.0 mm 0.00 in0.0 mm
07:25 PM 64.9°F18.3°C 56.1°F13.4°C 73% Calm Calm 1.3 mph2.1 kmh 29.91 in1012.9 mb 0.00 in0.0 mm 0.00 in0.0 mm 0.00 in0.0 mm
07:29 PM 64.8°F18.2°C 55.9°F13.3°C 73% Calm Calm -- 29.91 in1012.9 mb 0.00 in0.0 mm 0.00 in0.0 mm 0.00 in0.0 mm
07:34 PM 64.8°F18.2°C 55.9°F13.3°C 73% Calm Calm -- 29.91 in1012.9 mb 0.00 in0.0 mm 0.00 in0.0 mm 0.00 in0.0 mm
07:39 PM 64.8°F18.2°C 55.9°F13.3°C 73% 2.5 mph NW4.0 kmh NW 2.5 mph4.0 kmh 29.91 in1012.9 mb 0.00 in0.0 mm 0.00 in0.0 mm 0.00 in0.0 mm
07:44 PM 64.6°F18.1°C 56.1°F13.4°C 74% 2.5 mph W4.0 kmh W 2.5 mph4.0 kmh 29.91 in1012.9 mb 0.00 in0.0 mm 0.00 in0.0 mm 0.00 in0.0 mm
07:49 PM 64.4°F18.0°C 55.9°F13.3°C 74% Calm Calm 2.5 mph4.0 kmh 29.91 in1012.9 mb 0.00 in0.0 mm 0.00 in0.0 mm 0.00 in0.0 mm
07:54 PM 64.4°F18.0°C 56.3°F13.5°C 75% 1.6 mph W2.6 kmh W 2.7 mph4.3 kmh 29.91 in1012.9 mb 0.00 in0.0 mm 0.00 in0.0 mm 0.00 in0.0 mm
07:59 PM 64.4°F18.0°C 56.3°F13.5°C 75% Calm Calm 2.5 mph4.0 kmh 29.91 in1012.9 mb 0.00 in0.0 mm 0.00 in0.0 mm 0.00 in0.0 mm
08:04 PM 64.4°F18.0°C 56.3°F13.5°C 75% Calm Calm 0.9 mph1.4 kmh 29.91 in1012.9 mb 0.00 in0.0 mm 0.00 in0.0 mm 0.00 in0.0 mm
08:09 PM 64.4°F18.0°C 56.3°F13.5°C 75% 2.0 mph WNW3.2 kmh WNW 2.7 mph4.3 kmh 29.91 in1012.9 mb 0.00 in0.0 mm 0.00 in0.0 mm 0.00 in0.0 mm
08:15 PM 64.6°F18.1°C 56.5°F13.6°C 75% Calm Calm 2.2 mph3.5 kmh 29.91 in1012.9 mb 0.00 in0.0 mm 0.00 in0.0 mm 0.00 in0.0 mm
08:20 PM 64.4°F18.0°C 56.3°F13.5°C 75% 2.0 mph NW3.2 kmh NW 2.0 mph3.2 kmh 29.91 in1012.9 mb 0.00 in0.0 mm 0.00 in0.0 mm 0.00 in0.0 mm
08:25 PM 64.4°F18.0°C 56.3°F13.5°C 75% 2.9 mph W4.7 kmh W 2.9 mph4.7 kmh 29.91 in1012.9 mb 0.00 in0.0 mm 0.00 in0.0 mm 0.00 in0.0 mm
08:29 PM 64.2°F17.9°C 56.5°F13.6°C 76% 3.6 mph W5.8 kmh W 3.6 mph5.8 kmh 29.91 in1012.9 mb 0.00 in0.0 mm 0.00 in0.0 mm 0.00 in0.0 mm
08:34 PM 64.2°F17.9°C 56.5°F13.6°C 76% 2.5 mph W4.0 kmh W 3.8 mph6.1 kmh 29.91 in1012.9 mb 0.00 in0.0 mm 0.00 in0.0 mm 0.00 in0.0 mm
08:39 PM 64.2°F17.9°C 56.5°F13.6°C 76% Calm Calm 2.5 mph4.0 kmh 29.91 in1012.9 mb 0.00 in0.0 mm 0.00 in0.0 mm 0.00 in0.0 mm
08:44 PM 64.2°F17.9°C 56.5°F13.6°C 76% Calm Calm -- 29.91 in1012.9 mb 0.00 in0.0 mm 0.00 in0.0 mm 0.00 in0.0 mm
08:49 PM 64.2°F17.9°C 56.9°F13.8°C 77% 2.5 mph WNW4.0 kmh WNW 2.5 mph4.0 kmh 29.91 in1012.9 mb 0.00 in0.0 mm 0.00 in0.0 mm 0.00 in0.0 mm
08:54 PM 64.2°F17.9°C 56.9°F13.8°C 77% 2.2 mph NNE3.5 kmh NNE 2.2 mph3.5 kmh 29.91 in1012.9 mb 0.00 in0.0 mm 0.00 in0.0 mm 0.00 in0.0 mm
08:59 PM 64.2°F17.9°C 56.9°F13.8°C 77% Calm Calm 2.0 mph3.2 kmh 29.91 in1012.9 mb 0.00 in0.0 mm 0.00 in0.0 mm 0.00 in0.0 mm
09:04 PM 64.4°F18.0°C 56.7°F13.7°C 76% Calm Calm -- 29.91 in1012.9 mb 0.00 in0.0 mm 0.00 in0.0 mm 0.00 in0.0 mm
09:09 PM 64.4°F18.0°C 56.7°F13.7°C 76% 2.5 mph NNE4.0 kmh NNE 2.5 mph4.0 kmh 29.91 in1012.9 mb 0.00 in0.0 mm 0.00 in0.0 mm 0.00 in0.0 mm
09:15 PM 64.2°F17.9°C 56.9°F13.8°C 77% Calm Calm 2.5 mph4.0 kmh 29.94 in1013.9 mb 0.00 in0.0 mm 0.00 in0.0 mm 0.00 in0.0 mm
09:20 PM 64.2°F17.9°C 56.9°F13.8°C 77% 3.4 mph NNE5.5 kmh NNE 3.4 mph5.5 kmh 29.94 in1013.9 mb 0.00 in0.0 mm 0.00 in0.0 mm 0.00 in0.0 mm
09:24 PM 64.2°F17.9°C 56.9°F13.8°C 77% 1.1 mph N1.8 kmh N 3.4 mph5.5 kmh 29.94 in1013.9 mb 0.00 in0.0 mm 0.00 in0.0 mm 0.00 in0.0 mm
09:29 PM 64.0°F17.8°C 56.7°F13.7°C 77% Calm Calm -- 29.94 in1013.9 mb 0.00 in0.0 mm 0.00 in0.0 mm 0.00 in0.0 mm
09:34 PM 63.9°F17.7°C 56.5°F13.6°C 77% 0.9 mph NE1.4 kmh NE 0.9 mph1.4 kmh 29.94 in1013.9 mb 0.00 in0.0 mm 0.00 in0.0 mm 0.00 in0.0 mm
09:39 PM 63.9°F17.7°C 56.9°F13.8°C 78% Calm Calm 2.0 mph3.2 kmh 29.94 in1013.9 mb 0.00 in0.0 mm 0.00 in0.0 mm 0.00 in0.0 mm
09:44 PM 63.7°F17.6°C 56.7°F13.7°C 78% 1.6 mph WNW2.6 kmh WNW 2.0 mph3.2 kmh 29.94 in1013.9 mb 0.00 in0.0 mm 0.00 in0.0 mm 0.00 in0.0 mm
09:49 PM 63.5°F17.5°C 56.5°F13.6°C 78% Calm Calm -- 29.94 in1013.9 mb 0.00 in0.0 mm 0.00 in0.0 mm 0.00 in0.0 mm
09:54 PM 63.5°F17.5°C 56.9°F13.8°C 79% Calm Calm 2.9 mph4.7 kmh 29.94 in1013.9 mb 0.00 in0.0 mm 0.00 in0.0 mm 0.00 in0.0 mm
09:59 PM 63.5°F17.5°C 57.2°F14.0°C 80% 1.6 mph WNW2.6 kmh WNW 1.6 mph2.6 kmh 29.94 in1013.9 mb 0.00 in0.0 mm 0.00 in0.0 mm 0.00 in0.0 mm
10:04 PM 63.5°F17.5°C 57.6°F14.2°C 81% 0.9 mph NE1.4 kmh NE 3.1 mph5.0 kmh 29.94 in1013.9 mb 0.00 in0.0 mm 0.00 in0.0 mm 0.00 in0.0 mm
10:09 PM 63.7°F17.6°C 57.8°F14.3°C 81% 1.6 mph WNW2.6 kmh WNW 2.5 mph4.0 kmh 29.94 in1013.9 mb 0.00 in0.0 mm 0.00 in0.0 mm 0.00 in0.0 mm
10:15 PM 63.5°F17.5°C 57.6°F14.2°C 81% 0.9 mph NNE1.4 kmh NNE 3.1 mph5.0 kmh 29.94 in1013.9 mb 0.00 in0.0 mm 0.00 in0.0 mm 0.00 in0.0 mm
10:20 PM 63.5°F17.5°C 57.6°F14.2°C 81% 2.0 mph NNE3.2 kmh NNE 2.5 mph4.0 kmh 29.94 in1013.9 mb 0.00 in0.0 mm 0.00 in0.0 mm 0.00 in0.0 mm
10:25 PM 63.5°F17.5°C 57.6°F14.2°C 81% 2.0 mph NE3.2 kmh NE 2.2 mph3.5 kmh 29.94 in1013.9 mb 0.00 in0.0 mm 0.00 in0.0 mm 0.00 in0.0 mm
10:29 PM 63.5°F17.5°C 57.9°F14.4°C 82% Calm Calm 2.0 mph3.2 kmh 29.94 in1013.9 mb 0.00 in0.0 mm 0.00 in0.0 mm 0.00 in0.0 mm
10:34 PM 63.3°F17.4°C 57.7°F14.3°C 82% 1.3 mph NNE2.1 kmh NNE 1.3 mph2.1 kmh 29.94 in1013.9 mb 0.00 in0.0 mm 0.00 in0.0 mm 0.00 in0.0 mm
10:39 PM 63.3°F17.4°C 57.7°F14.3°C 82% Calm Calm -- 29.94 in1013.9 mb 0.00 in0.0 mm 0.00 in0.0 mm 0.00 in0.0 mm
10:44 PM 63.3°F17.4°C 57.7°F14.3°C 82% Calm Calm 1.3 mph2.1 kmh 29.94 in1013.9 mb 0.00 in0.0 mm 0.00 in0.0 mm 0.00 in0.0 mm
10:49 PM 63.3°F17.4°C 57.7°F14.3°C 82% Calm Calm 1.6 mph2.6 kmh 29.94 in1013.9 mb 0.00 in0.0 mm 0.00 in0.0 mm 0.00 in0.0 mm
10:54 PM 63.3°F17.4°C 58.1°F14.5°C 83% Calm Calm -- 29.94 in1013.9 mb 0.00 in0.0 mm 0.00 in0.0 mm 0.00 in0.0 mm
10:59 PM 63.3°F17.4°C 58.1°F14.5°C 83% Calm Calm -- 29.94 in1013.9 mb 0.00 in0.0 mm 0.00 in0.0 mm 0.00 in0.0 mm
11:04 PM 63.3°F17.4°C 58.1°F14.5°C 83% Calm Calm -- 29.94 in1013.9 mb 0.00 in0.0 mm 0.00 in0.0 mm 0.00 in0.0 mm
11:09 PM 63.1°F17.3°C 58.2°F14.6°C 84% 1.6 mph WNW2.6 kmh WNW 3.4 mph5.5 kmh 29.94 in1013.9 mb 0.00 in0.0 mm 0.00 in0.0 mm 0.00 in0.0 mm
11:15 PM 63.1°F17.3°C 58.2°F14.6°C 84% Calm Calm -- 29.94 in1013.9 mb 0.00 in0.0 mm 0.00 in0.0 mm 0.00 in0.0 mm
11:20 PM 63.1°F17.3°C 58.2°F14.6°C 84% 3.6 mph W5.8 kmh W 3.6 mph5.8 kmh 29.94 in1013.9 mb 0.00 in0.0 mm 0.00 in0.0 mm 0.00 in0.0 mm
11:25 PM 63.1°F17.3°C 58.6°F14.8°C 85% Calm Calm 2.2 mph3.5 kmh 29.94 in1013.9 mb 0.00 in0.0 mm 0.00 in0.0 mm 0.00 in0.0 mm
11:29 PM 63.1°F17.3°C 58.6°F14.8°C 85% 0.9 mph W1.4 kmh W 2.2 mph3.5 kmh 29.91 in1012.9 mb 0.00 in0.0 mm 0.00 in0.0 mm 0.00 in0.0 mm
11:34 PM 63.1°F17.3°C 58.6°F14.8°C 85% Calm Calm -- 29.91 in1012.9 mb 0.00 in0.0 mm 0.00 in0.0 mm 0.00 in0.0 mm
11:38 PM 63.1°F17.3°C 58.6°F14.8°C 85% Calm Calm -- 29.91 in1012.9 mb 0.00 in0.0 mm 0.00 in0.0 mm 0.00 in0.0 mm
11:44 PM 63.3°F17.4°C 58.7°F14.8°C 85% Calm Calm -- 29.94 in1013.9 mb 0.00 in0.0 mm 0.00 in0.0 mm 0.00 in0.0 mm
11:49 PM 63.3°F17.4°C 58.7°F14.8°C 85% 1.6 mph NW2.6 kmh NW 1.6 mph2.6 kmh 29.94 in1013.9 mb 0.00 in0.0 mm 0.00 in0.0 mm 0.00 in0.0 mm
11:54 PM 63.3°F17.4°C 58.7°F14.8°C 85% 2.9 mph W4.7 kmh W 3.8 mph6.1 kmh 29.94 in1013.9 mb 0.00 in0.0 mm 0.00 in0.0 mm 0.00 in0.0 mm
11:59 PM 63.1°F17.3°C 58.6°F14.8°C 85% 2.0 mph W3.2 kmh W 2.7 mph4.3 kmh 29.94 in1013.9 mb 0.00 in0.0 mm 0.00 in0.0 mm 0.00 in0.0 mm